sensor_id;sensor_type;location;lat;lon;timestamp;P1;durP1;ratioP1;P2;durP2;ratioP2
82230;SDS011;71832;45.138;9.816;2023-12-07T00:01:57;20.13;;;8.80;;
82230;SDS011;71832;45.138;9.816;2023-12-07T00:04:25;21.02;;;11.02;;
82230;SDS011;71832;45.138;9.816;2023-12-07T00:06:54;21.30;;;11.02;;
82230;SDS011;71832;45.138;9.816;2023-12-07T00:09:23;19.83;;;12.15;;
82230;SDS011;71832;45.138;9.816;2023-12-07T00:11:51;18.67;;;10.63;;
82230;SDS011;71832;45.138;9.816;2023-12-07T00:14:20;25.15;;;11.60;;
82230;SDS011;71832;45.138;9.816;2023-12-07T00:16:49;19.17;;;10.52;;
82230;SDS011;71832;45.138;9.816;2023-12-07T00:19:17;19.15;;;9.57;;
82230;SDS011;71832;45.138;9.816;2023-12-07T00:21:46;19.85;;;9.57;;
82230;SDS011;71832;45.138;9.816;2023-12-07T00:24:15;17.90;;;9.48;;
82230;SDS011;71832;45.138;9.816;2023-12-07T00:26:43;19.50;;;9.88;;
82230;SDS011;71832;45.138;9.816;2023-12-07T00:29:12;19.70;;;10.20;;
82230;SDS011;71832;45.138;9.816;2023-12-07T00:31:41;19.90;;;10.13;;
82230;SDS011;71832;45.138;9.816;2023-12-07T00:34:10;22.08;;;9.60;;
82230;SDS011;71832;45.138;9.816;2023-12-07T00:40:03;20.48;;;10.60;;
82230;SDS011;71832;45.138;9.816;2023-12-07T00:42:33;20.30;;;9.13;;
82230;SDS011;71832;45.138;9.816;2023-12-07T00:45:02;19.85;;;9.65;;
82230;SDS011;71832;45.138;9.816;2023-12-07T00:47:31;20.10;;;10.18;;
82230;SDS011;71832;45.138;9.816;2023-12-07T00:49:59;20.15;;;11.05;;
82230;SDS011;71832;45.138;9.816;2023-12-07T00:52:28;21.67;;;10.70;;
82230;SDS011;71832;45.138;9.816;2023-12-07T00:54:56;20.70;;;10.85;;
82230;SDS011;71832;45.138;9.816;2023-12-07T00:57:25;23.48;;;10.85;;
82230;SDS011;71832;45.138;9.816;2023-12-07T00:59:54;27.58;;;12.93;;
82230;SDS011;71832;45.138;9.816;2023-12-07T01:02:21;24.33;;;11.82;;
82230;SDS011;71832;45.138;9.816;2023-12-07T01:04:50;26.42;;;10.73;;
82230;SDS011;71832;45.138;9.816;2023-12-07T01:07:19;27.92;;;12.77;;
82230;SDS011;71832;45.138;9.816;2023-12-07T01:09:48;23.92;;;11.55;;
82230;SDS011;71832;45.138;9.816;2023-12-07T01:12:16;22.75;;;12.05;;
82230;SDS011;71832;45.138;9.816;2023-12-07T01:14:45;25.15;;;11.43;;
82230;SDS011;71832;45.138;9.816;2023-12-07T01:17:14;24.10;;;12.48;;
82230;SDS011;71832;45.138;9.816;2023-12-07T01:19:42;21.08;;;11.77;;
82230;SDS011;71832;45.138;9.816;2023-12-07T01:22:11;26.25;;;12.32;;
82230;SDS011;71832;45.138;9.816;2023-12-07T01:24:40;22.92;;;11.77;;
82230;SDS011;71832;45.138;9.816;2023-12-07T01:27:09;21.50;;;10.82;;
82230;SDS011;71832;45.138;9.816;2023-12-07T01:29:38;21.45;;;11.48;;
82230;SDS011;71832;45.138;9.816;2023-12-07T01:32:07;19.45;;;9.65;;
82230;SDS011;71832;45.138;9.816;2023-12-07T01:34:35;21.42;;;10.32;;
82230;SDS011;71832;45.138;9.816;2023-12-07T01:37:04;22.65;;;10.15;;
82230;SDS011;71832;45.138;9.816;2023-12-07T01:39:33;16.90;;;9.30;;
82230;SDS011;71832;45.138;9.816;2023-12-07T01:42:02;23.35;;;9.63;;
82230;SDS011;71832;45.138;9.816;2023-12-07T01:44:31;20.90;;;10.25;;
82230;SDS011;71832;45.138;9.816;2023-12-07T01:47:00;24.63;;;11.25;;
82230;SDS011;71832;45.138;9.816;2023-12-07T01:49:29;19.88;;;9.88;;
82230;SDS011;71832;45.138;9.816;2023-12-07T01:51:58;20.23;;;10.32;;
82230;SDS011;71832;45.138;9.816;2023-12-07T01:54:27;21.48;;;10.05;;
82230;SDS011;71832;45.138;9.816;2023-12-07T01:56:56;20.52;;;10.55;;
82230;SDS011;71832;45.138;9.816;2023-12-07T01:59:25;23.27;;;11.13;;
82230;SDS011;71832;45.138;9.816;2023-12-07T02:01:53;19.40;;;10.68;;
82230;SDS011;71832;45.138;9.816;2023-12-07T02:04:22;24.67;;;10.80;;
82230;SDS011;71832;45.138;9.816;2023-12-07T02:06:52;20.38;;;11.00;;
82230;SDS011;71832;45.138;9.816;2023-12-07T02:09:24;24.33;;;11.65;;
82230;SDS011;71832;45.138;9.816;2023-12-07T02:11:53;28.98;;;11.90;;
82230;SDS011;71832;45.138;9.816;2023-12-07T02:14:21;23.85;;;11.88;;
82230;SDS011;71832;45.138;9.816;2023-12-07T02:16:53;21.55;;;11.00;;
82230;SDS011;71832;45.138;9.816;2023-12-07T02:22:25;23.42;;;10.70;;
82230;SDS011;71832;45.138;9.816;2023-12-07T02:25:05;20.40;;;10.93;;
82230;SDS011;71832;45.138;9.816;2023-12-07T02:27:39;21.00;;;11.18;;
82230;SDS011;71832;45.138;9.816;2023-12-07T02:30:10;22.58;;;11.10;;
82230;SDS011;71832;45.138;9.816;2023-12-07T02:32:40;26.35;;;10.88;;
82230;SDS011;71832;45.138;9.816;2023-12-07T02:35:10;25.02;;;12.90;;
82230;SDS011;71832;45.138;9.816;2023-12-07T02:37:41;20.55;;;10.80;;
82230;SDS011;71832;45.138;9.816;2023-12-07T02:40:12;20.25;;;9.80;;
82230;SDS011;71832;45.138;9.816;2023-12-07T02:42:44;23.45;;;11.52;;
82230;SDS011;71832;45.138;9.816;2023-12-07T02:45:14;20.13;;;9.80;;
82230;SDS011;71832;45.138;9.816;2023-12-07T02:47:43;20.02;;;10.30;;
82230;SDS011;71832;45.138;9.816;2023-12-07T02:50:12;22.92;;;10.80;;
82230;SDS011;71832;45.138;9.816;2023-12-07T02:52:41;20.77;;;10.18;;
82230;SDS011;71832;45.138;9.816;2023-12-07T02:55:10;19.10;;;9.82;;
82230;SDS011;71832;45.138;9.816;2023-12-07T02:57:38;21.52;;;10.63;;
82230;SDS011;71832;45.138;9.816;2023-12-07T03:00:07;18.85;;;9.52;;
82230;SDS011;71832;45.138;9.816;2023-12-07T03:02:38;18.80;;;10.30;;
82230;SDS011;71832;45.138;9.816;2023-12-07T03:05:07;18.10;;;9.15;;
82230;SDS011;71832;45.138;9.816;2023-12-07T03:07:36;18.70;;;9.38;;
82230;SDS011;71832;45.138;9.816;2023-12-07T03:10:05;17.85;;;8.80;;
82230;SDS011;71832;45.138;9.816;2023-12-07T03:12:34;16.13;;;9.27;;
82230;SDS011;71832;45.138;9.816;2023-12-07T03:15:03;21.35;;;10.77;;
82230;SDS011;71832;45.138;9.816;2023-12-07T03:17:32;17.35;;;9.38;;
82230;SDS011;71832;45.138;9.816;2023-12-07T03:20:00;19.40;;;8.90;;
82230;SDS011;71832;45.138;9.816;2023-12-07T03:22:31;15.30;;;8.43;;
82230;SDS011;71832;45.138;9.816;2023-12-07T03:25:00;18.17;;;8.85;;
82230;SDS011;71832;45.138;9.816;2023-12-07T03:27:29;18.60;;;8.23;;
82230;SDS011;71832;45.138;9.816;2023-12-07T03:29:57;14.40;;;7.93;;
82230;SDS011;71832;45.138;9.816;2023-12-07T03:32:26;16.67;;;8.55;;
82230;SDS011;71832;45.138;9.816;2023-12-07T03:34:55;17.55;;;7.70;;
82230;SDS011;71832;45.138;9.816;2023-12-07T03:37:24;13.75;;;7.43;;
82230;SDS011;71832;45.138;9.816;2023-12-07T03:39:52;18.15;;;7.95;;
82230;SDS011;71832;45.138;9.816;2023-12-07T03:42:21;17.40;;;8.02;;
82230;SDS011;71832;45.138;9.816;2023-12-07T03:44:50;15.48;;;7.65;;
82230;SDS011;71832;45.138;9.816;2023-12-07T03:47:18;17.63;;;8.13;;
82230;SDS011;71832;45.138;9.816;2023-12-07T03:49:47;16.88;;;7.40;;
82230;SDS011;71832;45.138;9.816;2023-12-07T03:52:16;13.40;;;7.97;;
82230;SDS011;71832;45.138;9.816;2023-12-07T03:54:45;15.82;;;7.47;;
82230;SDS011;71832;45.138;9.816;2023-12-07T03:57:13;17.50;;;7.68;;
82230;SDS011;71832;45.138;9.816;2023-12-07T03:59:42;11.57;;;6.35;;
82230;SDS011;71832;45.138;9.816;2023-12-07T04:02:12;11.25;;;6.60;;
82230;SDS011;71832;45.138;9.816;2023-12-07T04:04:41;12.75;;;7.07;;
82230;SDS011;71832;45.138;9.816;2023-12-07T04:07:10;12.95;;;6.32;;
82230;SDS011;71832;45.138;9.816;2023-12-07T04:09:38;10.52;;;6.22;;
82230;SDS011;71832;45.138;9.816;2023-12-07T04:12:07;12.93;;;6.50;;
82230;SDS011;71832;45.138;9.816;2023-12-07T04:14:36;13.77;;;5.80;;
82230;SDS011;71832;45.138;9.816;2023-12-07T04:17:05;14.15;;;6.75;;
82230;SDS011;71832;45.138;9.816;2023-12-07T04:19:34;10.68;;;6.80;;
82230;SDS011;71832;45.138;9.816;2023-12-07T04:22:02;10.50;;;5.70;;
82230;SDS011;71832;45.138;9.816;2023-12-07T04:24:31;14.45;;;6.57;;
82230;SDS011;71832;45.138;9.816;2023-12-07T04:27:00;12.05;;;6.03;;
82230;SDS011;71832;45.138;9.816;2023-12-07T04:29:28;13.52;;;6.70;;
82230;SDS011;71832;45.138;9.816;2023-12-07T04:31:57;10.82;;;5.95;;
82230;SDS011;71832;45.138;9.816;2023-12-07T04:34:26;11.18;;;6.22;;
82230;SDS011;71832;45.138;9.816;2023-12-07T04:36:55;11.73;;;6.32;;
82230;SDS011;71832;45.138;9.816;2023-12-07T04:39:23;11.65;;;6.10;;
82230;SDS011;71832;45.138;9.816;2023-12-07T04:41:52;11.32;;;6.03;;
82230;SDS011;71832;45.138;9.816;2023-12-07T04:44:21;9.77;;;5.95;;
82230;SDS011;71832;45.138;9.816;2023-12-07T04:46:54;11.95;;;6.68;;
82230;SDS011;71832;45.138;9.816;2023-12-07T04:49:44;16.05;;;6.82;;
82230;SDS011;71832;45.138;9.816;2023-12-07T04:52:20;13.30;;;6.68;;
82230;SDS011;71832;45.138;9.816;2023-12-07T04:54:48;11.70;;;6.35;;
82230;SDS011;71832;45.138;9.816;2023-12-07T04:57:16;11.50;;;5.88;;
82230;SDS011;71832;45.138;9.816;2023-12-07T04:59:43;13.52;;;6.13;;
82230;SDS011;71832;45.138;9.816;2023-12-07T05:02:14;10.63;;;6.05;;
82230;SDS011;71832;45.138;9.816;2023-12-07T05:04:42;12.23;;;6.10;;
82230;SDS011;71832;45.138;9.816;2023-12-07T05:07:11;15.57;;;6.70;;
82230;SDS011;71832;45.138;9.816;2023-12-07T05:09:39;11.63;;;6.60;;
82230;SDS011;71832;45.138;9.816;2023-12-07T05:12:08;14.13;;;6.82;;
82230;SDS011;71832;45.138;9.816;2023-12-07T05:14:36;14.02;;;6.25;;
82230;SDS011;71832;45.138;9.816;2023-12-07T05:17:03;12.10;;;6.15;;
82230;SDS011;71832;45.138;9.816;2023-12-07T05:19:31;11.63;;;6.40;;
82230;SDS011;71832;45.138;9.816;2023-12-07T05:21:58;10.55;;;6.22;;
82230;SDS011;71832;45.138;9.816;2023-12-07T05:24:28;11.02;;;5.68;;
82230;SDS011;71832;45.138;9.816;2023-12-07T05:27:00;12.55;;;6.03;;
82230;SDS011;71832;45.138;9.816;2023-12-07T05:29:29;10.30;;;5.63;;
82230;SDS011;71832;45.138;9.816;2023-12-07T05:31:58;12.00;;;5.97;;
82230;SDS011;71832;45.138;9.816;2023-12-07T05:34:26;11.85;;;6.50;;
82230;SDS011;71832;45.138;9.816;2023-12-07T05:36:54;9.15;;;5.75;;
82230;SDS011;71832;45.138;9.816;2023-12-07T05:39:22;12.00;;;6.60;;
82230;SDS011;71832;45.138;9.816;2023-12-07T05:41:51;14.23;;;6.78;;
82230;SDS011;71832;45.138;9.816;2023-12-07T05:44:20;10.95;;;6.22;;
82230;SDS011;71832;45.138;9.816;2023-12-07T05:46:48;12.30;;;6.30;;
82230;SDS011;71832;45.138;9.816;2023-12-07T05:49:17;12.05;;;6.25;;
82230;SDS011;71832;45.138;9.816;2023-12-07T05:51:48;10.60;;;5.82;;
82230;SDS011;71832;45.138;9.816;2023-12-07T05:54:18;12.55;;;6.35;;
82230;SDS011;71832;45.138;9.816;2023-12-07T05:56:48;13.05;;;6.70;;
82230;SDS011;71832;45.138;9.816;2023-12-07T05:59:17;13.52;;;6.03;;
82230;SDS011;71832;45.138;9.816;2023-12-07T06:01:45;12.40;;;6.28;;
82230;SDS011;71832;45.138;9.816;2023-12-07T06:04:14;12.20;;;6.55;;
82230;SDS011;71832;45.138;9.816;2023-12-07T06:06:43;13.10;;;6.70;;
82230;SDS011;71832;45.138;9.816;2023-12-07T06:09:11;11.88;;;6.60;;
82230;SDS011;71832;45.138;9.816;2023-12-07T06:11:39;9.50;;;6.05;;
82230;SDS011;71832;45.138;9.816;2023-12-07T06:14:08;14.70;;;7.38;;
82230;SDS011;71832;45.138;9.816;2023-12-07T06:16:37;12.50;;;6.72;;
82230;SDS011;71832;45.138;9.816;2023-12-07T06:19:06;11.85;;;6.15;;
82230;SDS011;71832;45.138;9.816;2023-12-07T06:21:35;11.95;;;5.88;;
82230;SDS011;71832;45.138;9.816;2023-12-07T06:24:03;12.82;;;6.85;;
82230;SDS011;71832;45.138;9.816;2023-12-07T06:26:33;12.77;;;6.25;;
82230;SDS011;71832;45.138;9.816;2023-12-07T06:29:01;13.57;;;7.45;;
82230;SDS011;71832;45.138;9.816;2023-12-07T06:31:30;13.07;;;6.97;;
82230;SDS011;71832;45.138;9.816;2023-12-07T06:33:58;15.68;;;6.85;;
82230;SDS011;71832;45.138;9.816;2023-12-07T06:36:26;15.27;;;6.57;;
82230;SDS011;71832;45.138;9.816;2023-12-07T06:38:55;11.68;;;5.75;;
82230;SDS011;71832;45.138;9.816;2023-12-07T06:41:24;11.25;;;6.25;;
82230;SDS011;71832;45.138;9.816;2023-12-07T06:43:51;12.30;;;5.97;;
82230;SDS011;71832;45.138;9.816;2023-12-07T06:46:19;9.98;;;5.95;;
82230;SDS011;71832;45.138;9.816;2023-12-07T06:48:47;12.88;;;6.15;;
82230;SDS011;71832;45.138;9.816;2023-12-07T06:51:16;11.93;;;6.43;;
82230;SDS011;71832;45.138;9.816;2023-12-07T06:53:44;11.32;;;6.80;;
82230;SDS011;71832;45.138;9.816;2023-12-07T06:56:13;13.18;;;6.70;;
82230;SDS011;71832;45.138;9.816;2023-12-07T06:58:42;11.88;;;6.53;;
82230;SDS011;71832;45.138;9.816;2023-12-07T07:01:10;15.43;;;6.93;;
82230;SDS011;71832;45.138;9.816;2023-12-07T07:03:40;12.95;;;6.80;;
82230;SDS011;71832;45.138;9.816;2023-12-07T07:06:09;14.15;;;7.18;;
82230;SDS011;71832;45.138;9.816;2023-12-07T07:08:38;17.58;;;6.90;;
82230;SDS011;71832;45.138;9.816;2023-12-07T07:11:11;13.10;;;6.30;;
82230;SDS011;71832;45.138;9.816;2023-12-07T07:13:42;12.20;;;6.07;;
82230;SDS011;71832;45.138;9.816;2023-12-07T07:16:09;14.48;;;6.57;;
82230;SDS011;71832;45.138;9.816;2023-12-07T07:18:38;14.55;;;7.68;;
82230;SDS011;71832;45.138;9.816;2023-12-07T07:21:07;15.98;;;7.93;;
82230;SDS011;71832;45.138;9.816;2023-12-07T07:23:35;18.27;;;8.45;;
82230;SDS011;71832;45.138;9.816;2023-12-07T07:26:04;27.38;;;11.60;;
82230;SDS011;71832;45.138;9.816;2023-12-07T07:28:35;21.23;;;9.32;;
82230;SDS011;71832;45.138;9.816;2023-12-07T07:31:02;17.58;;;8.38;;
82230;SDS011;71832;45.138;9.816;2023-12-07T07:33:31;13.20;;;7.32;;
82230;SDS011;71832;45.138;9.816;2023-12-07T07:35:59;20.52;;;9.98;;
82230;SDS011;71832;45.138;9.816;2023-12-07T07:38:27;15.45;;;7.85;;
82230;SDS011;71832;45.138;9.816;2023-12-07T07:40:55;18.70;;;8.63;;
82230;SDS011;71832;45.138;9.816;2023-12-07T07:43:23;17.85;;;9.68;;
82230;SDS011;71832;45.138;9.816;2023-12-07T07:45:52;19.88;;;9.35;;
82230;SDS011;71832;45.138;9.816;2023-12-07T07:48:21;19.35;;;9.27;;
82230;SDS011;71832;45.138;9.816;2023-12-07T07:50:51;19.15;;;8.15;;
82230;SDS011;71832;45.138;9.816;2023-12-07T07:53:19;17.73;;;7.97;;
82230;SDS011;71832;45.138;9.816;2023-12-07T07:55:46;16.85;;;7.72;;
82230;SDS011;71832;45.138;9.816;2023-12-07T07:58:14;14.27;;;8.02;;
82230;SDS011;71832;45.138;9.816;2023-12-07T08:00:41;13.07;;;7.55;;
82230;SDS011;71832;45.138;9.816;2023-12-07T08:03:12;14.63;;;7.32;;
82230;SDS011;71832;45.138;9.816;2023-12-07T08:05:40;14.35;;;7.72;;
82230;SDS011;71832;45.138;9.816;2023-12-07T08:08:07;20.05;;;8.85;;
82230;SDS011;71832;45.138;9.816;2023-12-07T08:10:36;15.45;;;7.65;;
82230;SDS011;71832;45.138;9.816;2023-12-07T08:13:05;19.02;;;8.30;;
82230;SDS011;71832;45.138;9.816;2023-12-07T08:15:34;19.52;;;9.82;;
82230;SDS011;71832;45.138;9.816;2023-12-07T08:18:02;18.42;;;9.57;;
82230;SDS011;71832;45.138;9.816;2023-12-07T08:20:31;17.80;;;9.18;;
82230;SDS011;71832;45.138;9.816;2023-12-07T08:22:58;18.30;;;9.57;;
82230;SDS011;71832;45.138;9.816;2023-12-07T08:25:27;19.25;;;10.02;;
82230;SDS011;71832;45.138;9.816;2023-12-07T08:27:54;21.13;;;10.40;;
82230;SDS011;71832;45.138;9.816;2023-12-07T08:30:22;19.02;;;10.07;;
82230;SDS011;71832;45.138;9.816;2023-12-07T08:32:50;17.33;;;9.77;;
82230;SDS011;71832;45.138;9.816;2023-12-07T08:35:17;19.27;;;9.70;;
82230;SDS011;71832;45.138;9.816;2023-12-07T08:37:45;19.10;;;10.25;;
82230;SDS011;71832;45.138;9.816;2023-12-07T08:40:14;20.17;;;10.23;;
82230;SDS011;71832;45.138;9.816;2023-12-07T08:42:45;18.73;;;10.48;;
82230;SDS011;71832;45.138;9.816;2023-12-07T08:47:42;17.70;;;9.68;;
82230;SDS011;71832;45.138;9.816;2023-12-07T08:50:11;18.52;;;10.32;;
82230;SDS011;71832;45.138;9.816;2023-12-07T08:52:39;18.95;;;10.38;;
82230;SDS011;71832;45.138;9.816;2023-12-07T08:55:07;23.75;;;10.57;;
82230;SDS011;71832;45.138;9.816;2023-12-07T08:57:35;21.52;;;10.55;;
82230;SDS011;71832;45.138;9.816;2023-12-07T09:00:04;21.63;;;10.63;;
82230;SDS011;71832;45.138;9.816;2023-12-07T09:02:33;21.55;;;11.07;;
82230;SDS011;71832;45.138;9.816;2023-12-07T09:05:01;19.88;;;10.75;;
82230;SDS011;71832;45.138;9.816;2023-12-07T09:07:30;22.10;;;10.52;;
82230;SDS011;71832;45.138;9.816;2023-12-07T09:09:58;21.08;;;10.75;;
82230;SDS011;71832;45.138;9.816;2023-12-07T09:12:26;23.17;;;11.15;;
82230;SDS011;71832;45.138;9.816;2023-12-07T09:14:54;19.35;;;10.88;;
82230;SDS011;71832;45.138;9.816;2023-12-07T09:17:23;21.25;;;10.75;;
82230;SDS011;71832;45.138;9.816;2023-12-07T09:19:51;19.55;;;10.68;;
82230;SDS011;71832;45.138;9.816;2023-12-07T09:22:19;18.90;;;9.80;;
82230;SDS011;71832;45.138;9.816;2023-12-07T09:24:47;18.25;;;10.27;;
82230;SDS011;71832;45.138;9.816;2023-12-07T09:27:14;21.27;;;10.45;;
82230;SDS011;71832;45.138;9.816;2023-12-07T09:29:42;16.63;;;8.98;;
82230;SDS011;71832;45.138;9.816;2023-12-07T09:32:10;18.92;;;10.93;;
82230;SDS011;71832;45.138;9.816;2023-12-07T09:34:39;16.42;;;9.43;;
82230;SDS011;71832;45.138;9.816;2023-12-07T09:37:07;17.38;;;9.52;;
82230;SDS011;71832;45.138;9.816;2023-12-07T09:39:35;18.00;;;9.90;;
82230;SDS011;71832;45.138;9.816;2023-12-07T09:42:04;17.58;;;9.85;;
82230;SDS011;71832;45.138;9.816;2023-12-07T09:44:35;19.05;;;9.02;;
82230;SDS011;71832;45.138;9.816;2023-12-07T09:47:03;17.15;;;8.77;;
82230;SDS011;71832;45.138;9.816;2023-12-07T09:49:31;16.73;;;9.65;;
82230;SDS011;71832;45.138;9.816;2023-12-07T09:52:00;15.65;;;9.02;;
82230;SDS011;71832;45.138;9.816;2023-12-07T09:54:29;16.23;;;8.80;;
82230;SDS011;71832;45.138;9.816;2023-12-07T09:56:58;18.95;;;9.82;;
82230;SDS011;71832;45.138;9.816;2023-12-07T09:59:25;16.83;;;9.75;;
82230;SDS011;71832;45.138;9.816;2023-12-07T10:01:53;14.23;;;8.77;;
82230;SDS011;71832;45.138;9.816;2023-12-07T10:04:21;16.45;;;9.23;;
82230;SDS011;71832;45.138;9.816;2023-12-07T10:06:52;22.55;;;9.73;;
82230;SDS011;71832;45.138;9.816;2023-12-07T10:09:20;15.90;;;9.18;;
82230;SDS011;71832;45.138;9.816;2023-12-07T10:12:01;16.27;;;9.25;;
82230;SDS011;71832;45.138;9.816;2023-12-07T10:14:37;15.05;;;8.48;;
82230;SDS011;71832;45.138;9.816;2023-12-07T10:20:21;16.00;;;9.27;;
82230;SDS011;71832;45.138;9.816;2023-12-07T10:23:09;20.30;;;9.73;;
82230;SDS011;71832;45.138;9.816;2023-12-07T10:25:37;20.13;;;9.75;;
82230;SDS011;71832;45.138;9.816;2023-12-07T10:28:07;17.10;;;9.70;;
82230;SDS011;71832;45.138;9.816;2023-12-07T10:30:39;17.02;;;9.25;;
82230;SDS011;71832;45.138;9.816;2023-12-07T10:33:09;15.35;;;8.98;;
82230;SDS011;71832;45.138;9.816;2023-12-07T10:35:38;16.85;;;9.05;;
82230;SDS011;71832;45.138;9.816;2023-12-07T10:38:08;16.42;;;9.65;;
82230;SDS011;71832;45.138;9.816;2023-12-07T10:40:36;15.82;;;9.23;;
82230;SDS011;71832;45.138;9.816;2023-12-07T10:43:08;16.33;;;8.90;;
82230;SDS011;71832;45.138;9.816;2023-12-07T10:45:35;17.33;;;9.60;;
82230;SDS011;71832;45.138;9.816;2023-12-07T10:48:05;16.42;;;9.60;;
82230;SDS011;71832;45.138;9.816;2023-12-07T10:50:37;19.98;;;9.57;;
82230;SDS011;71832;45.138;9.816;2023-12-07T10:53:21;19.35;;;9.60;;
82230;SDS011;71832;45.138;9.816;2023-12-07T10:56:10;18.95;;;9.85;;
82230;SDS011;71832;45.138;9.816;2023-12-07T10:58:43;17.67;;;10.02;;
82230;SDS011;71832;45.138;9.816;2023-12-07T11:01:11;19.15;;;10.93;;
82230;SDS011;71832;45.138;9.816;2023-12-07T11:03:40;17.98;;;10.13;;
82230;SDS011;71832;45.138;9.816;2023-12-07T11:06:10;17.13;;;9.80;;
82230;SDS011;71832;45.138;9.816;2023-12-07T11:08:40;19.55;;;10.57;;
82230;SDS011;71832;45.138;9.816;2023-12-07T11:14:11;19.38;;;10.35;;
82230;SDS011;71832;45.138;9.816;2023-12-07T11:16:42;20.33;;;11.27;;
82230;SDS011;71832;45.138;9.816;2023-12-07T11:22:03;17.08;;;10.57;;
82230;SDS011;71832;45.138;9.816;2023-12-07T11:24:34;19.40;;;10.60;;
82230;SDS011;71832;45.138;9.816;2023-12-07T11:27:03;20.02;;;10.90;;
82230;SDS011;71832;45.138;9.816;2023-12-07T11:29:32;22.17;;;11.32;;
82230;SDS011;71832;45.138;9.816;2023-12-07T11:32:02;21.67;;;11.30;;
82230;SDS011;71832;45.138;9.816;2023-12-07T11:34:34;23.48;;;11.57;;
82230;SDS011;71832;45.138;9.816;2023-12-07T11:37:03;23.13;;;12.13;;
82230;SDS011;71832;45.138;9.816;2023-12-07T11:39:34;20.63;;;11.35;;
82230;SDS011;71832;45.138;9.816;2023-12-07T11:42:07;21.02;;;11.25;;
82230;SDS011;71832;45.138;9.816;2023-12-07T11:44:40;20.67;;;11.02;;
82230;SDS011;71832;45.138;9.816;2023-12-07T11:47:15;19.83;;;11.25;;
82230;SDS011;71832;45.138;9.816;2023-12-07T11:49:46;20.80;;;11.63;;
82230;SDS011;71832;45.138;9.816;2023-12-07T11:52:17;19.67;;;11.00;;
82230;SDS011;71832;45.138;9.816;2023-12-07T11:54:47;18.83;;;10.80;;
82230;SDS011;71832;45.138;9.816;2023-12-07T11:57:17;18.52;;;11.18;;
82230;SDS011;71832;45.138;9.816;2023-12-07T11:59:44;19.77;;;10.52;;
82230;SDS011;71832;45.138;9.816;2023-12-07T12:02:13;24.00;;;12.43;;
82230;SDS011;71832;45.138;9.816;2023-12-07T12:04:41;20.95;;;11.25;;
82230;SDS011;71832;45.138;9.816;2023-12-07T12:07:09;21.25;;;11.90;;
82230;SDS011;71832;45.138;9.816;2023-12-07T12:09:36;19.70;;;11.45;;
82230;SDS011;71832;45.138;9.816;2023-12-07T12:12:05;22.30;;;12.48;;
82230;SDS011;71832;45.138;9.816;2023-12-07T12:14:33;21.00;;;11.73;;
82230;SDS011;71832;45.138;9.816;2023-12-07T12:17:01;20.67;;;11.50;;
82230;SDS011;71832;45.138;9.816;2023-12-07T12:19:29;19.45;;;11.48;;
82230;SDS011;71832;45.138;9.816;2023-12-07T12:22:02;22.25;;;12.05;;
82230;SDS011;71832;45.138;9.816;2023-12-07T12:24:32;20.13;;;10.40;;
82230;SDS011;71832;45.138;9.816;2023-12-07T12:27:02;20.60;;;11.60;;
82230;SDS011;71832;45.138;9.816;2023-12-07T12:29:32;21.20;;;11.55;;
82230;SDS011;71832;45.138;9.816;2023-12-07T12:32:02;21.10;;;11.77;;
82230;SDS011;71832;45.138;9.816;2023-12-07T12:34:32;19.60;;;11.90;;
82230;SDS011;71832;45.138;9.816;2023-12-07T12:37:01;19.65;;;11.23;;
82230;SDS011;71832;45.138;9.816;2023-12-07T12:39:31;18.50;;;10.98;;
82230;SDS011;71832;45.138;9.816;2023-12-07T12:42:00;23.50;;;11.93;;
82230;SDS011;71832;45.138;9.816;2023-12-07T12:44:30;21.92;;;12.20;;
82230;SDS011;71832;45.138;9.816;2023-12-07T12:46:59;23.08;;;12.00;;
82230;SDS011;71832;45.138;9.816;2023-12-07T12:49:37;23.30;;;12.07;;
82230;SDS011;71832;45.138;9.816;2023-12-07T12:52:09;21.35;;;11.48;;
82230;SDS011;71832;45.138;9.816;2023-12-07T12:54:38;22.05;;;11.75;;
82230;SDS011;71832;45.138;9.816;2023-12-07T12:57:09;20.00;;;11.57;;
82230;SDS011;71832;45.138;9.816;2023-12-07T12:59:38;19.42;;;11.25;;
82230;SDS011;71832;45.138;9.816;2023-12-07T13:02:07;21.13;;;11.40;;
82230;SDS011;71832;45.138;9.816;2023-12-07T13:04:36;18.30;;;10.93;;
82230;SDS011;71832;45.138;9.816;2023-12-07T13:07:04;22.30;;;10.48;;
82230;SDS011;71832;45.138;9.816;2023-12-07T13:09:33;17.30;;;10.02;;
82230;SDS011;71832;45.138;9.816;2023-12-07T13:12:02;18.10;;;9.68;;
82230;SDS011;71832;45.138;9.816;2023-12-07T13:14:31;20.60;;;10.68;;
82230;SDS011;71832;45.138;9.816;2023-12-07T13:17:01;16.73;;;9.90;;
82230;SDS011;71832;45.138;9.816;2023-12-07T13:19:30;16.60;;;8.48;;
82230;SDS011;71832;45.138;9.816;2023-12-07T13:21:59;15.50;;;8.35;;
82230;SDS011;71832;45.138;9.816;2023-12-07T13:24:29;15.65;;;9.07;;
82230;SDS011;71832;45.138;9.816;2023-12-07T13:26:57;15.60;;;8.88;;
82230;SDS011;71832;45.138;9.816;2023-12-07T13:29:26;14.82;;;8.45;;
82230;SDS011;71832;45.138;9.816;2023-12-07T13:31:55;16.10;;;9.15;;
82230;SDS011;71832;45.138;9.816;2023-12-07T13:34:24;16.17;;;8.60;;
82230;SDS011;71832;45.138;9.816;2023-12-07T13:36:52;16.73;;;7.72;;
82230;SDS011;71832;45.138;9.816;2023-12-07T13:39:21;16.33;;;8.02;;
82230;SDS011;71832;45.138;9.816;2023-12-07T13:41:52;13.25;;;7.65;;
82230;SDS011;71832;45.138;9.816;2023-12-07T13:44:21;13.35;;;7.88;;
82230;SDS011;71832;45.138;9.816;2023-12-07T13:46:50;13.57;;;8.10;;
82230;SDS011;71832;45.138;9.816;2023-12-07T13:49:20;13.90;;;7.75;;
82230;SDS011;71832;45.138;9.816;2023-12-07T13:51:48;14.77;;;8.88;;
82230;SDS011;71832;45.138;9.816;2023-12-07T13:54:17;13.93;;;7.82;;
82230;SDS011;71832;45.138;9.816;2023-12-07T13:56:46;14.85;;;7.43;;
82230;SDS011;71832;45.138;9.816;2023-12-07T13:59:15;12.40;;;7.43;;
82230;SDS011;71832;45.138;9.816;2023-12-07T14:01:43;13.80;;;7.30;;
82230;SDS011;71832;45.138;9.816;2023-12-07T14:04:12;18.77;;;7.47;;
82230;SDS011;71832;45.138;9.816;2023-12-07T14:06:41;13.10;;;7.88;;
82230;SDS011;71832;45.138;9.816;2023-12-07T14:09:10;14.30;;;7.68;;
82230;SDS011;71832;45.138;9.816;2023-12-07T14:11:38;15.38;;;7.30;;
82230;SDS011;71832;45.138;9.816;2023-12-07T14:14:07;13.43;;;7.35;;
82230;SDS011;71832;45.138;9.816;2023-12-07T14:16:38;15.38;;;8.05;;
82230;SDS011;71832;45.138;9.816;2023-12-07T14:19:06;13.27;;;7.45;;
82230;SDS011;71832;45.138;9.816;2023-12-07T14:21:35;13.00;;;7.53;;
82230;SDS011;71832;45.138;9.816;2023-12-07T14:24:04;14.30;;;7.60;;
82230;SDS011;71832;45.138;9.816;2023-12-07T14:26:33;14.60;;;7.32;;
82230;SDS011;71832;45.138;9.816;2023-12-07T14:29:02;13.45;;;7.53;;
82230;SDS011;71832;45.138;9.816;2023-12-07T14:31:31;13.05;;;7.65;;
82230;SDS011;71832;45.138;9.816;2023-12-07T14:33:59;17.10;;;7.88;;
82230;SDS011;71832;45.138;9.816;2023-12-07T14:36:29;15.07;;;7.93;;
82230;SDS011;71832;45.138;9.816;2023-12-07T14:38:56;24.63;;;9.75;;
82230;SDS011;71832;45.138;9.816;2023-12-07T14:41:24;37.35;;;13.40;;
82230;SDS011;71832;45.138;9.816;2023-12-07T14:43:52;50.78;;;15.77;;
82230;SDS011;71832;45.138;9.816;2023-12-07T14:46:19;50.33;;;16.17;;
82230;SDS011;71832;45.138;9.816;2023-12-07T14:48:47;47.40;;;14.48;;
82230;SDS011;71832;45.138;9.816;2023-12-07T14:51:18;28.60;;;11.40;;
82230;SDS011;71832;45.138;9.816;2023-12-07T14:53:46;17.30;;;8.65;;
82230;SDS011;71832;45.138;9.816;2023-12-07T14:56:14;17.13;;;8.32;;
82230;SDS011;71832;45.138;9.816;2023-12-07T14:58:43;15.45;;;7.60;;
82230;SDS011;71832;45.138;9.816;2023-12-07T15:01:11;19.77;;;8.50;;